Time;durP1;ratioP1;P1;durP2;ratioP2;P2;SDS_P1;SDS_P2;PMS_P1;PMS_P2;Temp;Humidity;BMP_temperature;BMP_pressure;BME280_temperature;BME280_humidity;BME280_pressure;Samples;Min_cycle;Max_cycle;Signal;HPM_P1;HPM_P2
2022/02/10 00:19:08;;;;;;;17.05;9.18;;;;;;;2.90;76.72;99525.05;1742655;82;21551;-39
2022/02/10 00:21:43;;;;;;;15.28;8.43;;;;;;;2.86;76.96;99518.16;1731674;82;20990;-39
2022/02/10 00:34:40;;;;;;;14.78;9.68;;;;;;;2.88;78.29;99511.95;1686864;85;21541;-39
2022/02/10 00:42:15;;;;;;;16.50;9.30;;;;;;;2.97;79.08;99501.30;1715592;83;21019;-39
2022/02/10 00:44:42;;;;;;;15.08;9.15;;;;;;;2.96;79.21;99501.84;1715135;83;20984;-39
2022/02/10 00:47:08;;;;;;;13.00;8.98;;;;;;;2.97;79.30;99494.06;1715500;83;21088;-39
2022/02/10 00:49:36;;;;;;;12.07;8.70;;;;;;;3.03;79.35;99499.55;1715197;83;21840;-39
2022/02/10 00:52:05;;;;;;;13.53;8.83;;;;;;;3.08;79.33;99493.27;1747998;81;20974;-39
2022/02/10 00:54:35;;;;;;;15.20;8.68;;;;;;;3.08;79.42;99489.80;1695860;83;21096;-39
2022/02/10 00:57:03;;;;;;;15.08;8.40;;;;;;;3.09;79.49;99489.50;1713785;82;20973;-39
2022/02/10 00:59:42;;;;;;;13.43;8.90;;;;;;;3.12;79.44;99490.76;1713669;83;21514;-39
2022/02/10 01:10:32;;;;;;;11.55;8.48;;;;;;;3.09;79.84;99480.66;1710313;82;21565;-39
2022/02/10 01:13:21;;;;;;;13.03;8.80;;;;;;;3.13;79.89;99476.27;1713480;82;21057;-39
2022/02/10 01:31:46;;;;;;;11.55;7.87;;;;;;;3.21;80.15;99466.14;1707302;84;20961;-39
2022/02/10 01:34:12;;;;;;;9.68;7.53;;;;;;;3.27;80.07;99467.05;1731320;82;21009;-39
2022/02/10 01:36:40;;;;;;;11.50;8.38;;;;;;;3.31;80.04;99461.31;1743220;81;21014;-39
2022/02/10 01:39:07;;;;;;;10.82;8.10;;;;;;;3.31;80.09;99467.22;1743232;81;21021;-39
2022/02/10 02:03:55;;;;;;;12.35;8.98;;;;;;;3.40;80.46;99464.02;1737596;82;20989;-39
2022/02/10 02:06:35;;;;;;;12.28;8.80;;;;;;;3.40;80.47;99474.73;1721412;83;21507;-39
2022/02/10 02:08:59;;;;;;;12.00;8.63;;;;;;;3.41;80.49;99467.73;1720873;83;21156;-39
2022/02/10 02:11:26;;;;;;;11.33;7.90;;;;;;;3.43;80.49;99470.12;1721143;82;21073;-39
2022/02/10 02:13:52;;;;;;;9.78;7.65;;;;;;;3.40;80.56;99468.83;1721793;83;20977;-39
2022/02/10 02:16:19;;;;;;;8.33;6.80;;;;;;;3.43;80.69;99468.78;1721210;82;21531;-39
2022/02/10 02:18:46;;;;;;;8.63;6.90;;;;;;;3.49;80.61;99472.88;1721267;83;21590;-39
2022/02/10 02:21:18;;;;;;;8.90;6.90;;;;;;;3.49;80.66;99466.97;1732153;82;21169;-39
2022/02/10 02:23:45;;;;;;;9.13;7.35;;;;;;;3.50;80.85;99476.60;1751353;81;21077;-39
2022/02/10 02:26:16;;;;;;;9.43;7.10;;;;;;;3.53;80.95;99475.20;1753705;81;20960;-39
2022/02/10 02:28:45;;;;;;;9.38;7.22;;;;;;;3.59;80.93;99472.61;1764001;80;20937;-39
2022/02/10 02:31:15;;;;;;;11.90;7.60;;;;;;;3.66;80.99;99468.94;1764000;81;21076;-39
2022/02/10 02:39:22;;;;;;;8.65;7.10;;;;;;;3.81;81.27;99468.52;1764196;81;20882;-39
2022/02/10 03:06:26;;;;;;;11.90;9.90;;;;;;;4.33;82.12;99456.50;1713896;82;20966;-39
2022/02/10 03:08:52;;;;;;;13.68;10.18;;;;;;;4.39;81.99;99457.93;1678471;85;21079;-39
2022/02/10 03:11:18;;;;;;;13.32;10.35;;;;;;;4.39;81.97;99453.91;1713559;83;21080;-40
2022/02/10 03:13:51;;;;;;;12.95;9.75;;;;;;;4.42;81.84;99464.00;1731974;82;21099;-40
2022/02/10 03:16:38;;;;;;;12.43;10.10;;;;;;;4.44;81.59;99451.61;1743650;81;21346;-39
2022/02/10 03:21:44;;;;;;;12.75;10.53;;;;;;;4.46;81.27;99459.58;1741362;81;20953;-39
2022/02/10 04:00:19;;;;;;;13.68;11.30;;;;;;;4.67;80.99;99463.20;1713818;83;21065;-39
2022/02/10 04:07:34;;;;;;;15.03;12.78;;;;;;;4.62;80.77;99456.66;1743367;81;21501;-39
2022/02/10 04:10:11;;;;;;;14.80;11.97;;;;;;;4.63;80.53;99454.77;1744360;81;21077;-39
2022/02/10 04:23:00;;;;;;;16.27;13.38;;;;;;;4.58;80.01;99455.72;1743183;81;20975;-39
2022/02/10 04:57:13;;;;;;;15.35;12.50;;;;;;;4.63;79.02;99478.38;1743455;82;21028;-39
2022/02/10 04:59:41;;;;;;;13.85;12.05;;;;;;;4.61;78.96;99481.92;1745353;81;21160;-39
2022/02/10 05:17:56;;;;;;;18.25;13.28;;;;;;;4.57;79.70;99491.72;1717056;82;21089;-39
2022/02/10 05:22:50;;;;;;;16.90;12.88;;;;;;;4.62;79.67;99504.20;1741869;82;21586;-39
2022/02/10 05:33:45;;;;;;;16.12;12.10;;;;;;;4.70;79.39;99517.61;1763737;81;20966;-39
2022/02/10 05:36:08;;;;;;;15.98;12.40;;;;;;;4.69;79.42;99503.97;1762503;81;21062;-39
2022/02/10 05:38:42;;;;;;;14.75;12.03;;;;;;;4.72;79.33;99519.98;1763275;81;21956;-39
2022/02/10 05:46:27;;;;;;;15.05;12.15;;;;;;;4.73;78.98;99510.28;1703155;84;21569;-39
2022/02/10 05:49:10;;;;;;;18.27;12.33;;;;;;;4.73;78.95;99515.66;1701805;84;21080;-39
2022/02/10 05:54:19;;;;;;;15.10;12.10;;;;;;;4.74;78.95;99521.82;1703516;83;21004;-39
2022/02/10 05:56:42;;;;;;;14.73;11.53;;;;;;;4.74;78.93;99515.87;1731478;82;20934;-39
2022/02/10 05:59:29;;;;;;;16.00;12.65;;;;;;;4.75;78.85;99516.66;1742610;81;20990;-39
2022/02/10 06:54:43;;;;;;;14.18;11.28;;;;;;;4.95;78.00;99560.34;1682963;82;21160;-40
2022/02/10 07:04:20;;;;;;;15.68;11.93;;;;;;;5.03;77.48;99552.06;1713635;82;20974;-39
2022/02/10 07:06:41;;;;;;;15.78;12.28;;;;;;;5.04;77.60;99561.67;1712275;83;21528;-40
2022/02/10 07:47:22;;;;;;;14.05;10.82;;;;;;;5.30;76.86;99582.61;1713737;83;20981;-39
2022/02/10 07:49:48;;;;;;;15.15;11.73;;;;;;;5.30;76.97;99575.09;1712250;82;21030;-39
2022/02/10 07:57:47;;;;;;;15.70;11.35;;;;;;;5.36;76.84;99585.38;1726510;83;20996;-39
2022/02/10 08:00:38;;;;;;;13.08;10.78;;;;;;;5.37;76.85;99582.13;1725699;82;21037;-39
2022/02/10 08:51:13;;;;;;;13.00;10.43;;;;;;;5.80;75.30;99612.95;1769668;81;20997;-39
2022/02/10 08:58:08;;;;;;;11.70;9.90;;;;;;;5.89;75.19;99627.98;1713842;83;21085;-39
2022/02/10 09:13:43;;;;;;;11.78;10.10;;;;;;;6.14;74.61;99613.41;1743267;81;21144;-40
2022/02/10 09:56:51;;;;;;;9.65;8.43;;;;;;;6.53;72.52;99604.39;1685811;85;21075;-40
2022/02/10 10:01:58;;;;;;;9.90;7.67;;;;;;;6.68;72.18;99604.96;1721113;82;21013;-40
2022/02/10 10:04:16;;;;;;;10.05;8.00;;;;;;;6.73;71.87;99606.12;1714060;83;21518;-40
2022/02/10 10:10:43;;;;;;;10.08;8.35;;;;;;;6.82;71.47;99606.84;1782702;79;23694;-39
2022/02/10 10:15:58;;;;;;;10.13;8.23;;;;;;;6.71;71.55;99594.86;1754480;81;21771;-39
2022/02/10 10:49:39;;;;;;;8.55;7.08;;;;;;;7.02;70.25;99585.81;1709725;83;20946;-38
2022/02/10 10:57:15;;;;;;;8.78;7.08;;;;;;;7.02;70.07;99580.42;1692922;84;21147;-39
2022/02/10 10:59:52;;;;;;;10.40;7.53;;;;;;;7.03;70.00;99582.00;1708599;83;20989;-39
2022/02/10 11:06:37;;;;;;;9.25;7.75;;;;;;;7.06;69.71;99586.76;1710363;83;20120;-38
2022/02/10 11:39:42;;;;;;;12.68;10.13;;;;;;;6.57;71.66;99563.35;1724379;82;21932;-39
2022/02/10 11:42:27;;;;;;;13.28;10.40;;;;;;;6.55;71.90;99567.71;1719753;82;21057;-41
2022/02/10 11:47:53;;;;;;;13.93;11.70;;;;;;;6.49;72.15;99558.23;1728405;82;20985;-40
2022/02/10 12:35:58;;;;;;;11.28;9.60;;;;;;;6.44;72.55;99591.54;1705492;84;21896;-37
2022/02/10 12:42:13;;;;;;;12.53;9.85;;;;;;;6.55;72.28;99589.26;1705997;82;21017;-37
2022/02/10 13:34:51;;;;;;;10.70;8.35;;;;;;;6.75;71.88;99601.97;1718554;83;20988;-37
2022/02/10 14:13:03;;;;;;;10.32;8.43;;;;;;;6.90;70.71;99611.37;1660439;85;21056;-37
2022/02/10 14:25:46;;;;;;;14.03;10.55;;;;;;;6.68;70.91;99613.05;1720379;83;21148;-36
2022/02/10 14:28:09;;;;;;;13.58;10.78;;;;;;;6.62;70.84;99612.44;1663895;86;20948;-36
2022/02/10 14:30:38;;;;;;;14.70;11.03;;;;;;;6.54;70.90;99607.32;1663619;86;21050;-36
2022/02/10 14:33:06;;;;;;;14.07;11.20;;;;;;;6.46;70.96;99604.69;1693221;83;21017;-36
2022/02/10 14:35:51;;;;;;;13.95;10.88;;;;;;;6.40;71.02;99605.98;1702761;84;21036;-36
2022/02/10 14:38:19;;;;;;;14.98;11.20;;;;;;;6.36;71.01;99615.27;1700392;84;21153;-36
2022/02/10 15:46:30;;;;;;;16.62;13.05;;;;;;;4.50;72.95;99614.91;1677094;84;21260;-36
2022/02/10 16:17:08;;;;;;;18.12;14.25;;;;;;;3.97;73.92;99612.34;1638102;86;21111;-35
2022/02/10 16:19:35;;;;;;;19.35;14.43;;;;;;;3.92;74.19;99610.59;1692539;83;21435;-36
2022/02/10 16:22:21;;;;;;;20.60;14.75;;;;;;;3.89;74.35;99612.56;1709819;82;21264;-36
2022/02/10 16:24:45;;;;;;;20.37;15.95;;;;;;;3.87;74.41;99609.95;1718911;82;21484;-36
2022/02/10 16:27:22;;;;;;;18.45;14.20;;;;;;;3.83;74.52;99615.13;1728382;82;21012;-36
2022/02/10 16:29:46;;;;;;;20.68;15.20;;;;;;;3.79;74.62;99607.45;1733476;82;21009;-36
2022/02/10 16:32:13;;;;;;;18.60;14.15;;;;;;;3.74;74.62;99613.50;1735084;82;21476;-36
2022/02/10 16:34:41;;;;;;;17.82;13.60;;;;;;;3.71;74.55;99608.77;1735102;82;21511;-36
2022/02/10 16:37:09;;;;;;;18.73;14.70;;;;;;;3.66;74.58;99613.70;1734931;82;21907;-36
2022/02/10 16:39:39;;;;;;;19.12;14.83;;;;;;;3.60;74.55;99624.86;1724525;82;20965;-36
2022/02/10 16:42:08;;;;;;;18.77;13.80;;;;;;;3.55;74.51;99631.14;1720062;82;28702;-36
2022/02/10 16:44:37;;;;;;;19.20;14.70;;;;;;;3.48;74.50;99630.80;1724194;82;21556;-36
2022/02/10 16:47:06;;;;;;;21.40;15.72;;;;;;;3.41;74.55;99629.08;1730179;82;21022;-36
2022/02/10 16:49:33;;;;;;;19.92;15.75;;;;;;;3.38;74.73;99625.68;1733961;82;21871;-37
2022/02/10 16:52:00;;;;;;;20.50;14.90;;;;;;;3.35;75.06;99628.41;1728734;82;21061;-36
2022/02/10 16:54:34;;;;;;;21.77;16.12;;;;;;;3.30;75.53;99630.41;1729115;82;21551;-36
2022/02/10 17:00:04;;;;;;;24.12;18.00;;;;;;;3.19;76.46;99626.41;1709262;82;21515;-36
2022/02/10 17:21:27;;;;;;;26.90;19.90;;;;;;;3.09;78.66;99628.78;1719236;83;21425;-36
2022/02/10 17:28:59;;;;;;;25.80;19.90;;;;;;;3.13;78.69;99623.05;1749061;82;21033;-36
2022/02/10 17:31:44;;;;;;;25.17;20.00;;;;;;;3.14;78.68;99623.84;1737758;82;21058;-37
2022/02/10 17:36:51;;;;;;;23.62;18.42;;;;;;;3.11;78.55;99624.44;1748044;82;21511;-36
2022/02/10 17:43:32;;;;;;;25.80;19.55;;;;;;;3.08;78.48;99629.07;1736189;82;21169;-37
2022/02/10 17:44:50;;;;;;;27.02;19.23;;;;;;;3.06;78.45;99619.98;1727895;82;20992;-37
2022/02/10 17:52:14;;;;;;;25.62;18.35;;;;;;;3.00;78.19;99629.26;1680235;83;21088;-37
2022/02/10 17:54:35;;;;;;;28.98;19.52;;;;;;;3.00;78.15;99631.36;1731838;82;21554;-37
2022/02/10 17:57:02;;;;;;;25.68;19.67;;;;;;;3.00;78.08;99627.92;1748709;82;20922;-37
2022/02/10 17:59:33;;;;;;;27.00;20.02;;;;;;;2.99;77.98;99626.33;1721548;82;21037;-37
2022/02/10 18:01:57;;;;;;;26.55;19.40;;;;;;;2.98;77.94;99628.21;1718832;82;21037;-37
2022/02/10 18:04:24;;;;;;;26.80;20.90;;;;;;;2.97;77.90;99627.16;1719329;82;21009;-36
2022/02/10 18:06:55;;;;;;;27.95;22.00;;;;;;;2.92;77.84;99626.73;1719066;83;21137;-37
2022/02/10 18:17:28;;;;;;;29.25;21.45;;;;;;;2.78;77.92;99625.19;1717500;82;21064;-37
2022/02/10 18:20:00;;;;;;;25.97;20.90;;;;;;;2.77;77.91;99619.03;1734844;82;21058;-37
2022/02/10 18:22:39;;;;;;;24.10;19.98;;;;;;;2.77;77.91;99616.36;1734035;82;21048;-37
2022/02/10 18:27:29;;;;;;;27.62;20.70;;;;;;;2.71;78.04;99625.59;1734730;82;20977;-36
2022/02/10 18:30:14;;;;;;;29.25;21.25;;;;;;;2.67;78.14;99617.91;1725064;82;21518;-37
2022/02/10 18:54:35;;;;;;;30.00;22.40;;;;;;;2.56;78.66;99609.34;1719906;82;21047;-37
2022/02/10 19:01:33;;;;;;;28.67;22.05;;;;;;;2.54;78.97;99589.30;1714283;82;21065;-37
2022/02/10 19:03:03;;;;;;;27.67;21.25;;;;;;;2.53;79.17;99582.36;1724995;82;20982;-36
2022/02/10 19:07:49;;;;;;;30.30;22.02;;;;;;;2.54;79.09;99585.29;1711464;82;20146;-37
2022/02/10 19:10:11;;;;;;;29.85;21.00;;;;;;;2.47;79.34;99592.95;1705887;83;20995;-37
2022/02/10 19:12:46;;;;;;;31.15;22.42;;;;;;;2.48;79.28;99591.29;1715679;82;21085;-37
2022/02/10 19:15:23;;;;;;;28.35;21.10;;;;;;;2.48;79.13;99584.59;1719409;82;21012;-36
2022/02/10 19:17:50;;;;;;;28.52;20.95;;;;;;;2.47;79.16;99587.02;1718971;83;21490;-36
2022/02/10 19:20:20;;;;;;;30.05;22.32;;;;;;;2.45;79.13;99579.06;1744492;82;21565;-36
2022/02/10 19:22:48;;;;;;;27.22;21.15;;;;;;;2.46;79.13;99586.80;1746738;82;21001;-36
2022/02/10 19:25:16;;;;;;;30.40;23.00;;;;;;;2.48;79.22;99587.82;1748948;82;21784;-36
2022/02/10 19:27:48;;;;;;;28.57;21.30;;;;;;;2.47;79.41;99585.69;1746844;82;21468;-36
2022/02/10 19:30:15;;;;;;;19.95;15.58;;;;;;;2.49;79.47;99582.72;1718428;83;21032;-36
2022/02/10 19:32:48;;;;;;;26.57;19.95;;;;;;;2.52;79.53;99581.56;1745858;82;21813;-37
2022/02/10 19:35:13;;;;;;;27.62;21.23;;;;;;;2.54;79.48;99580.73;1747372;82;21002;-36
2022/02/10 19:37:39;;;;;;;30.17;21.52;;;;;;;2.56;79.45;99580.44;1748798;82;21150;-36
2022/02/10 19:40:07;;;;;;;27.60;21.20;;;;;;;2.60;79.49;99580.88;1746718;82;20957;-36
2022/02/10 19:42:36;;;;;;;27.22;20.35;;;;;;;2.64;79.46;99587.75;1746951;82;21504;-36
2022/02/10 19:45:05;;;;;;;27.35;19.98;;;;;;;2.68;79.41;99579.36;1720587;82;21527;-37
2022/02/10 19:47:35;;;;;;;19.53;15.97;;;;;;;2.72;79.36;99578.99;1724591;82;21592;-36
2022/02/10 19:50:09;;;;;;;30.55;21.25;;;;;;;2.76;79.31;99570.59;1719324;82;21337;-36
2022/02/10 19:52:32;;;;;;;;;;;;;;;2.78;79.40;99566.29;1721105;83;21010;-36
2022/02/10 19:55:01;;;;;;;24.82;18.85;;;;;;;2.82;79.40;99568.05;1719176;83;20173;-36
2022/02/10 19:57:28;;;;;;;26.97;20.68;;;;;;;2.80;79.60;99575.62;1725859;82;21083;-36
2022/02/10 19:59:56;;;;;;;30.48;20.85;;;;;;;2.85;79.52;99574.70;1749184;82;21029;-36
2022/02/10 20:02:24;;;;;;;25.17;19.98;;;;;;;2.89;79.48;99575.67;1749364;82;21051;-36
2022/02/10 20:04:51;;;;;;;30.25;20.50;;;;;;;2.92;79.39;99574.52;1740734;82;20980;-36
2022/02/10 20:07:17;;;;;;;23.77;18.73;;;;;;;2.96;79.28;99579.50;1734740;82;21009;-36
2022/02/10 20:09:44;;;;;;;28.87;19.60;;;;;;;2.98;79.09;99565.82;1718933;83;21096;-36
2022/02/10 20:12:10;;;;;;;25.15;19.12;;;;;;;2.98;78.96;99566.61;1720916;82;21013;-36
2022/02/10 20:14:37;;;;;;;26.15;20.15;;;;;;;2.98;78.88;99564.48;1719026;83;21856;-36
2022/02/10 20:17:04;;;;;;;26.00;19.50;;;;;;;2.96;78.78;99559.42;1736391;82;20981;-36
2022/02/10 20:19:30;;;;;;;26.37;19.32;;;;;;;2.96;78.72;99555.41;1748812;82;21547;-36
2022/02/10 20:21:58;;;;;;;24.50;19.00;;;;;;;2.95;78.64;99556.49;1748880;82;21080;-36
2022/02/10 20:24:24;;;;;;;26.12;20.50;;;;;;;2.93;78.66;99553.89;1748679;82;20961;-36
2022/02/10 20:26:51;;;;;;;25.97;19.30;;;;;;;2.90;78.67;99560.66;1728411;82;21093;-36
2022/02/10 20:29:18;;;;;;;25.37;19.57;;;;;;;2.88;78.70;99550.78;1719001;83;21036;-36
2022/02/10 20:31:45;;;;;;;27.27;19.55;;;;;;;2.85;78.78;99556.76;1734141;82;21068;-36
2022/02/10 20:34:14;;;;;;;27.30;20.00;;;;;;;2.84;78.86;99549.81;1748594;82;21069;-36
2022/02/10 20:36:40;;;;;;;28.98;20.30;;;;;;;2.83;78.84;99549.56;1739832;82;21565;-36
2022/02/10 20:39:07;;;;;;;27.70;19.87;;;;;;;2.84;78.82;99551.70;1719400;82;21133;-36
2022/02/10 20:41:36;;;;;;;27.77;20.43;;;;;;;2.85;78.76;99551.41;1718722;83;21001;-36
2022/02/10 20:44:04;;;;;;;25.57;19.57;;;;;;;2.85;78.74;99551.41;1719080;83;20929;-36
2022/02/10 20:46:32;;;;;;;25.80;19.60;;;;;;;2.86;78.64;99542.25;1744485;82;21555;-36
2022/02/10 20:49:02;;;;;;;26.52;20.65;;;;;;;2.87;78.66;99535.81;1740390;82;21013;-36
2022/02/10 20:51:27;;;;;;;24.30;19.12;;;;;;;2.89;78.62;99545.68;1748935;81;21147;-36
2022/02/10 20:53:54;;;;;;;26.48;19.70;;;;;;;2.92;78.56;99546.40;1747901;82;21259;-37
2022/02/10 20:56:21;;;;;;;23.98;18.50;;;;;;;2.95;78.57;99535.06;1721375;82;21036;-37
2022/02/10 20:58:55;;;;;;;26.80;19.15;;;;;;;3.03;78.51;99537.03;1720234;82;21107;-37
2022/02/10 21:01:18;;;;;;;25.95;20.30;;;;;;;3.11;78.34;99545.42;1718645;83;21008;-37
2022/02/10 21:03:45;;;;;;;23.83;18.37;;;;;;;3.15;78.22;99539.72;1718760;82;21155;-36
2022/02/10 21:09:09;;;;;;;23.50;18.55;;;;;;;3.25;77.82;99527.38;1650263;86;21048;-36
2022/02/10 21:11:29;;;;;;;24.10;18.67;;;;;;;3.25;77.70;99527.38;1664985;85;21606;-37
2022/02/10 21:13:59;;;;;;;25.85;18.90;;;;;;;3.25;77.58;99524.16;1676525;83;21551;-37
2022/02/10 21:16:27;;;;;;;24.57;17.70;;;;;;;3.27;77.61;99523.31;1733820;82;21156;-36
2022/02/10 21:18:53;;;;;;;23.07;17.80;;;;;;;3.28;77.50;99520.09;1713689;82;20933;-37
2022/02/10 21:21:20;;;;;;;24.67;18.73;;;;;;;3.31;77.50;99519.46;1713287;83;21088;-36
2022/02/10 21:23:55;;;;;;;22.60;17.60;;;;;;;3.32;77.40;99511.67;1713431;83;21268;-36
2022/02/10 21:26:20;;;;;;;25.65;18.85;;;;;;;3.33;77.32;99510.58;1678574;85;21056;-36
2022/02/10 21:28:48;;;;;;;24.52;18.12;;;;;;;3.37;77.33;99512.88;1692098;84;22066;-37
2022/02/10 21:31:14;;;;;;;26.82;18.62;;;;;;;3.37;77.25;99504.30;1666565;86;21045;-36
2022/02/10 21:34:01;;;;;;;23.15;18.05;;;;;;;3.41;77.23;99500.45;1667195;84;21056;-36
2022/02/10 21:39:27;;;;;;;22.60;17.57;;;;;;;3.50;77.13;99499.93;1680538;84;21037;-38
2022/02/10 22:18:50;;;;;;;18.92;15.15;;;;;;;3.56;77.13;99471.90;1730032;81;21045;-36
2022/02/10 22:21:25;;;;;;;19.50;15.43;;;;;;;3.58;77.09;99468.37;1754392;81;21310;-36
2022/02/10 22:23:48;;;;;;;19.87;15.72;;;;;;;3.61;77.02;99467.73;1755607;81;21076;-36
2022/02/10 22:28:08;;;;;;;19.92;14.85;;;;;;;3.71;76.82;99467.45;1781660;79;22680;-36
2022/02/10 22:30:41;;;;;;;18.17;14.28;;;;;;;3.67;76.75;99465.16;1777141;80;20972;-36
2022/02/10 22:33:20;;;;;;;20.02;14.55;;;;;;;3.69;76.64;99458.92;1775213;80;21145;-36
2022/02/10 22:35:28;;;;;;;19.00;15.20;;;;;;;3.70;76.53;99460.51;1766383;80;20980;-36
2022/02/10 22:37:57;;;;;;;17.60;13.83;;;;;;;3.70;76.35;99457.83;1781233;80;21506;-36
2022/02/10 22:40:36;;;;;;;18.37;14.45;;;;;;;3.67;76.33;99461.69;1788132;80;20961;-36
2022/02/10 22:42:52;;;;;;;16.67;13.78;;;;;;;3.63;76.40;99462.84;1785269;80;20953;-36
2022/02/10 22:45:20;;;;;;;19.45;14.33;;;;;;;3.61;76.41;99466.39;1765669;80;21136;-36
2022/02/10 22:47:46;;;;;;;18.50;13.98;;;;;;;3.59;76.46;99464.56;1784836;80;20953;-36
2022/02/10 22:50:13;;;;;;;17.70;13.70;;;;;;;3.57;76.51;99461.97;1787119;80;20948;-36
2022/02/10 22:52:39;;;;;;;22.77;14.75;;;;;;;3.55;76.57;99467.63;1788156;80;20964;-36
2022/02/10 22:55:07;;;;;;;19.50;14.35;;;;;;;3.53;76.60;99464.48;1787007;80;21001;-36
2022/02/10 22:57:35;;;;;;;18.75;14.03;;;;;;;3.54;76.58;99470.06;1757162;81;21135;-36
2022/02/10 23:00:06;;;;;;;17.85;13.40;;;;;;;3.52;76.61;99468.27;1767265;80;21694;-36
2022/02/10 23:02:31;;;;;;;16.32;13.62;;;;;;;3.49;76.64;99473.67;1788134;80;21083;-36
2022/02/10 23:04:58;;;;;;;25.30;14.58;;;;;;;3.49;76.70;99468.86;1780133;80;21572;-36
2022/02/10 23:07:25;;;;;;;19.27;14.30;;;;;;;3.49;76.71;99471.54;1785425;80;20956;-36
2022/02/10 23:12:39;;;;;;;20.60;14.25;;;;;;;3.53;76.88;99471.73;1788116;80;20988;-36
2022/02/10 23:15:07;;;;;;;17.15;13.85;;;;;;;3.50;77.02;99477.14;1788476;80;20977;-36
2022/02/10 23:17:36;;;;;;;18.10;13.43;;;;;;;3.49;77.00;99475.02;1786110;80;20972;-36
2022/02/10 23:20:04;;;;;;;17.67;13.38;;;;;;;3.49;77.08;99478.23;1749637;80;20961;-36
2022/02/10 23:22:31;;;;;;;17.65;14.30;;;;;;;3.49;77.09;99477.70;1748741;82;21214;-36
2022/02/10 23:24:58;;;;;;;17.05;13.62;;;;;;;3.46;77.07;99466.81;1772745;80;21036;-37
2022/02/10 23:27:25;;;;;;;17.40;13.62;;;;;;;3.46;77.15;99466.27;1784651;80;20961;-36
2022/02/10 23:29:51;;;;;;;16.95;13.30;;;;;;;3.48;77.12;99464.62;1783226;80;21487;-36
2022/02/10 23:32:18;;;;;;;16.12;12.85;;;;;;;3.47;77.08;99453.66;1782834;80;21092;-37
2022/02/10 23:34:45;;;;;;;18.17;13.78;;;;;;;3.47;77.13;99448.30;1760186;80;21272;-36
2022/02/10 23:37:13;;;;;;;16.27;12.87;;;;;;;3.53;77.17;99461.02;1753027;80;20965;-36
2022/02/10 23:39:45;;;;;;;15.78;12.70;;;;;;;3.56;77.14;99449.66;1752131;80;20914;-36
2022/02/10 23:42:26;;;;;;;16.70;12.78;;;;;;;3.60;77.01;99442.57;1751179;80;21000;-36
2022/02/10 23:44:45;;;;;;;16.55;13.00;;;;;;;3.66;76.96;99442.67;1770930;80;21048;-36
2022/02/10 23:47:15;;;;;;;16.80;13.05;;;;;;;3.70;76.88;99443.08;1782067;80;21226;-36
2022/02/10 23:49:39;;;;;;;14.87;12.30;;;;;;;3.73;76.78;99441.66;1781743;80;21527;-36
2022/02/10 23:52:08;;;;;;;14.25;12.23;;;;;;;3.77;76.68;99440.75;1781739;80;20925;-37
2022/02/10 23:54:40;;;;;;;16.37;12.78;;;;;;;3.80;76.61;99437.42;1782807;80;21060;-36
2022/02/10 23:57:15;;;;;;;15.93;13.45;;;;;;;3.86;76.44;99440.20;1771983;80;21013;-37
